Time;durP1;ratioP1;P1;durP2;ratioP2;P2;SDS_P1;SDS_P2;PMS_P1;PMS_P2;Temp;Humidity;BMP_temperature;BMP_pressure;BME280_temperature;BME280_humidity;BME280_pressure;Samples;Min_cycle;Max_cycle;Signal;HPM_P1;HPM_P2
2023/10/18 00:02:16;;;;;;;;;6.00;6.00;;;;;5.42;75.84;99726.59;5095446;28;8822;-57
2023/10/18 00:04:44;;;;;;;;;6.60;6.20;;;;;5.42;76.05;99723.97;5095632;28;8820;-58
2023/10/18 00:07:13;;;;;;;;;6.00;6.00;;;;;5.43;76.29;99723.00;5095661;28;8832;-57
2023/10/18 00:09:45;;;;;;;;;7.00;5.20;;;;;5.43;76.07;99718.59;5096152;28;8832;-57
2023/10/18 00:12:16;;;;;;;;;4.00;4.00;;;;;5.41;76.54;99730.19;5095927;28;8835;-56
2023/10/18 00:14:44;;;;;;;;;6.20;6.20;;;;;5.39;76.51;99726.81;5095155;28;8812;-57
2023/10/18 00:17:12;;;;;;;;;5.20;5.20;;;;;5.37;76.51;99723.38;5096038;28;8824;-55
2023/10/18 00:19:40;;;;;;;;;6.00;6.00;;;;;5.31;76.08;99710.59;5095834;28;9485;-58
2023/10/18 00:22:09;;;;;;;;;8.60;6.80;;;;;5.26;76.21;99713.47;5095735;28;8887;-56
2023/10/18 00:24:37;;;;;;;;;6.40;6.40;;;;;5.23;76.28;99702.31;5095241;28;8806;-56
2023/10/18 00:27:05;;;;;;;;;4.00;3.20;;;;;5.20;76.34;99705.09;5094789;28;8919;-56
2023/10/18 00:29:33;;;;;;;;;3.60;3.60;;;;;5.18;76.37;99696.44;5102218;28;8814;-56
2023/10/18 00:32:01;;;;;;;;;3.00;3.00;;;;;5.18;76.17;99693.81;5108918;28;8827;-58
2023/10/18 00:34:29;;;;;;;;;5.80;5.60;;;;;5.16;76.66;99691.25;5116201;28;9693;-58
2023/10/18 00:36:57;;;;;;;;;4.40;4.00;;;;;5.15;76.71;99683.44;5115725;28;8827;-55
2023/10/18 00:39:28;;;;;;;;;6.00;4.40;;;;;5.15;76.73;99683.44;5115163;28;8815;-57
2023/10/18 00:42:03;;;;;;;;;4.80;4.80;;;;;5.14;76.96;99681.72;5115446;28;8816;-57
2023/10/18 00:44:31;;;;;;;;;6.40;6.40;;;;;5.09;76.47;99673.28;5115293;28;8963;-56
2023/10/18 00:46:59;;;;;;;;;4.80;4.80;;;;;5.04;76.16;99670.91;5115634;28;9485;-58
2023/10/18 00:49:27;;;;;;;;;6.00;6.00;;;;;5.00;76.46;99679.94;5114892;28;8812;-57
2023/10/18 00:51:55;;;;;;;;;4.40;4.00;;;;;4.98;76.56;99668.66;5115261;28;8840;-57
2023/10/18 00:54:23;;;;;;;;;7.40;7.40;;;;;4.97;76.67;99668.75;5115718;28;8916;-55
2023/10/18 00:56:51;;;;;;;;;3.80;3.40;;;;;4.98;76.91;99666.00;5115992;28;8819;-56
2023/10/18 00:59:22;;;;;;;;;5.20;4.80;;;;;4.98;76.45;99660.75;5096298;28;8818;-57
2023/10/18 01:01:55;;;;;;;;;6.80;6.00;;;;;4.98;76.55;99665.16;5095007;28;8822;-57
2023/10/18 01:04:28;;;;;;;;;3.80;3.80;;;;;4.97;76.50;99663.47;5094871;28;8814;-56
2023/10/18 01:06:57;;;;;;;;;1.80;1.80;;;;;4.97;76.68;99656.41;5094907;28;8946;-58
2023/10/18 01:09:26;;;;;;;;;3.00;3.00;;;;;4.98;76.65;99665.16;5095791;28;8845;-57
2023/10/18 01:11:54;;;;;;;;;4.60;4.60;;;;;5.00;76.27;99657.97;5095479;28;8833;-56
2023/10/18 01:14:25;;;;;;;;;6.60;6.60;;;;;5.07;76.06;99659.31;5097161;28;8830;-57
2023/10/18 01:16:54;;;;;;;;;4.00;4.00;;;;;5.11;76.12;99650.28;5099098;28;8833;-58
2023/10/18 01:19:22;;;;;;;;;4.00;3.80;;;;;5.10;75.80;99645.94;5109837;28;8816;-57
2023/10/18 01:21:51;;;;;;;;;5.20;4.00;;;;;5.07;76.23;99654.03;5119190;28;8836;-56
2023/10/18 01:24:19;;;;;;;;;4.40;4.40;;;;;5.03;76.20;99644.63;5119010;28;8888;-57
2023/10/18 01:26:47;;;;;;;;;4.80;4.80;;;;;5.00;76.46;99639.50;5119464;28;8844;-57
2023/10/18 01:29:15;;;;;;;;;4.00;4.00;;;;;4.98;76.93;99639.63;5103779;28;8959;-56
2023/10/18 01:31:45;;;;;;;;;4.80;4.40;;;;;4.98;76.92;99642.28;5097931;28;8821;-57
2023/10/18 01:34:14;;;;;;;;;5.60;4.80;;;;;5.01;76.09;99634.16;5098401;28;8818;-56
2023/10/18 01:36:42;;;;;;;;;7.00;6.00;;;;;5.04;76.50;99635.75;5098870;28;8818;-56
2023/10/18 01:39:18;;;;;;;;;6.00;4.40;;;;;5.05;76.38;99642.72;5098177;28;8995;-56
2023/10/18 01:41:47;;;;;;;;;3.60;3.60;;;;;5.07;76.71;99630.28;5098927;28;8814;-56
2023/10/18 01:44:18;;;;;;;;;3.40;3.40;;;;;5.11;76.71;99629.16;5098615;28;8845;-56
2023/10/18 01:46:46;;;;;;;;;5.20;5.20;;;;;5.15;76.17;99630.66;5097904;28;8849;-58
2023/10/18 01:49:16;;;;;;;;;3.40;3.20;;;;;5.16;76.29;99624.44;5097591;28;8818;-57
2023/10/18 01:51:46;;;;;;;;;4.00;4.00;;;;;5.18;76.32;99619.91;5098461;28;9496;-57
2023/10/18 01:54:15;;;;;;;;;6.80;6.60;;;;;5.20;76.31;99618.03;5098236;28;8810;-57
2023/10/18 01:56:46;;;;;;;;;3.00;3.00;;;;;5.17;76.03;99619.06;5098550;28;8810;-55
2023/10/18 01:59:14;;;;;;;;;5.40;5.20;;;;;5.15;76.48;99609.53;5097953;28;8821;-58
2023/10/18 02:01:44;;;;;;;;;7.20;7.20;;;;;5.12;75.71;99609.75;5098076;28;8835;-56
2023/10/18 02:04:23;;;;;;;;;9.00;6.40;;;;;5.09;76.69;99609.94;5098159;28;8834;-56
2023/10/18 02:07:17;;;;;;;;;4.80;3.40;;;;;5.06;76.80;99604.84;5098227;28;8842;-56
2023/10/18 02:09:48;;;;;;;;;4.80;4.40;;;;;5.02;76.62;99593.63;5097437;28;8812;-57
2023/10/18 02:12:19;;;;;;;;;5.20;5.20;;;;;5.01;76.69;99604.31;5098374;28;8941;-57
2023/10/18 02:14:47;;;;;;;;;6.00;4.00;;;;;4.99;76.20;99604.38;5097937;28;8839;-56
2023/10/18 02:17:18;;;;;;;;;4.00;4.00;;;;;4.97;76.47;99598.38;5097568;28;8900;-56
2023/10/18 02:19:46;;;;;;;;;6.00;4.00;;;;;4.94;76.90;99606.47;5097380;28;8899;-56
2023/10/18 02:22:16;;;;;;;;;5.80;3.00;;;;;4.89;76.40;99608.56;5098403;28;8845;-56
2023/10/18 02:24:44;;;;;;;;;3.80;3.00;;;;;4.83;76.71;99611.56;5097440;28;8838;-57
2023/10/18 02:27:15;;;;;;;;;4.40;4.00;;;;;4.77;76.45;99611.94;5097408;28;8842;-58
2023/10/18 02:29:44;;;;;;;;;6.40;4.80;;;;;4.74;76.93;99608.63;5097407;28;8903;-56
2023/10/18 02:32:23;;;;;;;;;6.00;6.00;;;;;4.67;77.15;99597.63;5097473;28;8826;-55
2023/10/18 02:34:51;;;;;;;;;4.00;4.00;;;;;4.63;77.51;99593.47;5098131;28;9511;-56
2023/10/18 02:37:19;;;;;;;;;4.40;4.00;;;;;4.60;77.46;99590.16;5097519;28;8932;-56
2023/10/18 02:39:47;;;;;;;;;4.20;3.60;;;;;4.57;77.45;99595.66;5097308;28;8841;-55
2023/10/18 02:42:32;;;;;;;;;3.40;3.00;;;;;4.53;77.41;99588.84;5097297;28;8830;-56
2023/10/18 02:45:00;;;;;;;;;4.00;3.80;;;;;4.49;77.53;99590.81;5097678;28;8822;-57
2023/10/18 02:47:29;;;;;;;;;7.00;6.20;;;;;4.45;77.55;99586.69;5096796;28;9495;-57
2023/10/18 02:49:58;;;;;;;;;4.00;4.00;;;;;4.41;77.65;99581.69;5096958;28;8846;-58
2023/10/18 02:52:30;;;;;;;;;6.00;6.00;;;;;4.39;76.89;99579.16;5098096;28;8938;-57
2023/10/18 02:54:57;;;;;;;;;4.40;4.00;;;;;4.36;77.39;99581.13;5096847;28;8814;-58
2023/10/18 02:57:25;;;;;;;;;6.00;5.60;;;;;4.33;77.08;99571.59;5108424;28;8890;-56
2023/10/18 02:59:52;;;;;;;;;4.00;4.00;;;;;4.32;77.24;99563.78;5117097;28;8836;-57
2023/10/18 03:02:24;;;;;;;;;2.60;2.60;;;;;4.29;77.67;99570.13;5107137;28;9524;-56
2023/10/18 03:04:52;;;;;;;;;3.40;3.40;;;;;4.26;77.63;99558.91;5097244;28;9513;-58
2023/10/18 03:07:22;;;;;;;;;4.40;3.00;;;;;4.24;77.75;99555.50;5096725;28;8849;-57
2023/10/18 03:09:50;;;;;;;;;6.00;6.00;;;;;4.21;77.72;99556.56;5096537;28;8860;-55
2023/10/18 03:12:18;;;;;;;;;1.00;1.00;;;;;4.19;77.21;99553.13;5096906;28;8822;-56
2023/10/18 03:14:55;;;;;;;;;6.00;6.00;;;;;4.18;77.46;99555.91;5096892;28;8940;-57
2023/10/18 03:17:24;;;;;;;;;3.00;3.00;;;;;4.16;77.66;99542.81;5106484;28;8884;-56
2023/10/18 03:19:54;;;;;;;;;4.00;3.80;;;;;4.14;77.95;99538.56;5117225;28;8832;-57
2023/10/18 03:22:22;;;;;;;;;4.00;3.00;;;;;4.12;77.32;99535.19;5117677;28;8831;-56
2023/10/18 03:24:50;;;;;;;;;3.60;3.60;;;;;4.11;78.00;99538.75;5116730;28;8835;-56
2023/10/18 03:27:19;;;;;;;;;4.00;4.00;;;;;4.10;77.96;99542.34;5106440;28;9472;-56
2023/10/18 03:29:46;;;;;;;;;4.40;4.00;;;;;4.08;77.93;99547.69;5097126;28;8810;-56
2023/10/18 03:32:20;;;;;;;;;6.00;4.80;;;;;4.07;77.99;99537.22;5096777;28;9496;-56
2023/10/18 03:34:47;;;;;;;;;6.00;4.80;;;;;4.06;77.75;99536.41;5096286;28;8818;-56
2023/10/18 03:37:21;;;;;;;;;3.80;3.80;;;;;4.04;77.26;99532.16;5095025;28;8823;-58
2023/10/18 03:39:49;;;;;;;;;6.00;6.00;;;;;4.02;77.54;99523.47;5096253;28;8853;-56
2023/10/18 03:42:30;;;;;;;;;2.20;2.20;;;;;4.01;77.48;99519.16;5096090;28;8820;-57
2023/10/18 03:44:59;;;;;;;;;5.80;3.80;;;;;4.00;77.49;99525.38;5095530;28;8842;-57
2023/10/18 03:47:29;;;;;;;;;4.00;4.00;;;;;3.98;77.76;99516.72;5095448;28;8828;-58
2023/10/18 03:49:58;;;;;;;;;1.40;1.40;;;;;3.98;77.53;99514.09;5095720;28;8818;-58
2023/10/18 03:52:35;;;;;;;;;4.00;3.00;;;;;4.03;77.12;99515.50;5096719;28;8858;-56
2023/10/18 03:55:12;;;;;;;;;6.00;4.80;;;;;4.11;77.76;99507.16;5095640;28;8940;-57
2023/10/18 03:57:41;;;;;;;;;6.60;6.40;;;;;4.21;76.97;99503.88;5105827;28;8815;-57
2023/10/18 04:02:56;;;;;;;;;4.00;3.40;;;;;4.40;76.76;99493.03;5079082;28;8842;-57
2023/10/18 04:05:35;;;;;;;;;3.60;2.60;;;;;4.53;76.65;99493.94;5094901;28;8853;-57
2023/10/18 04:08:06;;;;;;;;;4.00;4.00;;;;;4.64;76.42;99484.41;5110235;28;8824;-57
2023/10/18 04:10:37;;;;;;;;;3.00;3.00;;;;;4.71;76.11;99483.09;5115506;28;8847;-57
2023/10/18 04:13:11;;;;;;;;;3.80;3.20;;;;;4.80;76.42;99479.03;5115432;28;8843;-56
2023/10/18 04:15:39;;;;;;;;;4.40;4.40;;;;;4.89;75.89;99486.34;5115632;28;8840;-58
2023/10/18 04:18:25;;;;;;;;;4.80;4.80;;;;;4.92;76.19;99475.59;5109611;28;8826;-57
2023/10/18 04:20:54;;;;;;;;;9.00;6.00;;;;;4.96;76.00;99470.06;5074308;28;8840;-58
2023/10/18 04:23:21;;;;;;;;;3.80;3.80;;;;;4.98;76.38;99464.66;5075694;28;8820;-55
2023/10/18 04:25:58;;;;;;;;;5.60;5.20;;;;;4.99;75.57;99467.22;5075239;28;9556;-57
2023/10/18 04:28:26;;;;;;;;;10.80;8.20;;;;;5.01;76.13;99453.94;5093151;28;9581;-57
2023/10/18 04:30:59;;;;;;;;;1.80;1.80;;;;;4.99;75.75;99453.16;5095095;28;8814;-57
2023/10/18 04:33:28;;;;;;;;;3.00;3.00;;;;;4.99;75.68;99453.16;5094830;28;8818;-56
2023/10/18 04:35:58;;;;;;;;;6.00;4.40;;;;;4.97;75.74;99447.16;5095238;28;8952;-55
2023/10/18 04:38:32;;;;;;;;;3.40;3.40;;;;;4.97;75.80;99444.50;5112319;28;8813;-57
2023/10/18 04:41:07;;;;;;;;;9.00;6.00;;;;;4.97;75.67;99442.72;5115049;28;8874;-57
2023/10/18 04:43:35;;;;;;;;;3.00;3.00;;;;;4.99;75.87;99439.97;5114626;28;8816;-58
2023/10/18 04:46:07;;;;;;;;;5.80;5.20;;;;;5.01;76.15;99438.09;5114418;28;8858;-56
2023/10/18 04:51:28;;;;;;;;;3.00;3.00;;;;;5.01;75.67;99430.19;5094359;28;8846;-58
2023/10/18 04:53:56;;;;;;;;;3.80;3.80;;;;;5.01;76.23;99422.28;5094413;28;8837;-56
2023/10/18 04:56:31;;;;;;;;;3.60;3.60;;;;;5.02;75.50;99418.69;5094287;28;8840;-56
2023/10/18 04:58:59;;;;;;;;;1.00;1.00;;;;;5.04;75.78;99409.72;5073786;28;8946;-55
2023/10/18 05:01:34;;;;;;;;;4.00;4.00;;;;;5.04;76.27;99409.72;5073782;28;8997;-56
2023/10/18 05:04:18;;;;;;;;;5.20;4.00;;;;;5.04;75.57;99412.38;5073783;28;8867;-55
2023/10/18 05:06:53;;;;;;;;;0.20;0.20;;;;;5.04;76.12;99411.50;5074116;28;8871;-56
2023/10/18 05:09:29;;;;;;;;;6.00;6.00;;;;;5.01;76.15;99412.53;5073617;28;9505;-56
2023/10/18 05:11:57;;;;;;;;;6.80;5.60;;;;;4.97;75.90;99408.44;5073636;28;8848;-56
2023/10/18 05:14:40;;;;;;;;;7.40;7.40;;;;;4.96;75.84;99411.16;5073356;28;8863;-58
2023/10/18 05:17:26;;;;;;;;;4.00;4.00;;;;;4.92;76.37;99402.59;5073628;28;8844;-55
2023/10/18 05:19:56;;;;;;;;;1.40;1.40;;;;;4.89;75.92;99407.22;5073477;28;8963;-56
2023/10/18 05:22:25;;;;;;;;;5.60;5.60;;;;;4.87;76.80;99406.50;5073223;28;9782;-57
2023/10/18 05:25:10;;;;;;;;;6.80;4.00;;;;;4.85;76.48;99408.34;5073286;28;8862;-57
2023/10/18 05:27:45;;;;;;;;;3.20;3.20;;;;;4.83;76.08;99404.97;5073403;28;9513;-57
2023/10/18 05:30:15;;;;;;;;;2.20;1.80;;;;;4.83;76.46;99403.22;5073590;28;8893;-57
2023/10/18 05:32:49;;;;;;;;;1.80;1.80;;;;;4.82;76.30;99398.03;5072964;28;8858;-56
2023/10/18 05:35:21;;;;;;;;;6.00;6.00;;;;;4.83;76.33;99392.66;5073274;28;8844;-55
2023/10/18 05:37:58;;;;;;;;;0.00;0.00;;;;;4.84;76.44;99393.50;5073331;28;8838;-58
2023/10/18 05:43:12;;;;;;;;;7.40;6.60;;;;;4.87;75.95;99388.03;5069549;28;8840;-58
2023/10/18 05:45:41;;;;;;;;;3.40;3.40;;;;;4.90;76.12;99382.53;5071320;28;8832;-57
2023/10/18 05:48:13;;;;;;;;;3.40;3.20;;;;;4.94;75.79;99378.78;5071792;28;8941;-58
2023/10/18 05:50:45;;;;;;;;;4.40;4.00;;;;;4.95;76.20;99375.19;5072295;28;8883;-58
2023/10/18 05:53:18;;;;;;;;;4.40;4.00;;;;;4.95;75.70;99376.00;5072308;28;8828;-57
2023/10/18 05:55:46;;;;;;;;;3.80;3.80;;;;;4.97;76.23;99374.13;5072139;28;8844;-57
2023/10/18 05:58:19;;;;;;;;;4.00;3.60;;;;;4.97;75.88;99368.00;5070924;28;8836;-56
2023/10/18 06:00:53;;;;;;;;;3.80;3.40;;;;;4.95;76.37;99359.34;5072573;28;8854;-56
2023/10/18 06:03:22;;;;;;;;;5.60;4.00;;;;;4.96;76.19;99356.63;5075488;28;8835;-58
2023/10/18 06:05:53;;;;;;;;;3.80;3.00;;;;;4.99;75.92;99355.56;5075667;28;8827;-56
2023/10/18 06:08:23;;;;;;;;;4.00;4.00;;;;;5.00;75.76;99355.47;5075343;28;8832;-57
2023/10/18 06:10:53;;;;;;;;;4.00;4.00;;;;;5.04;75.72;99350.81;5075540;28;8832;-58
2023/10/18 06:13:22;;;;;;;;;6.60;5.40;;;;;5.06;75.51;99348.91;5075371;28;8816;-57
2023/10/18 06:15:50;;;;;;;;;4.00;4.00;;;;;5.08;75.81;99344.41;5075382;28;8924;-57
2023/10/18 06:18:25;;;;;;;;;2.60;2.60;;;;;5.07;75.41;99337.41;5075797;28;8836;-57
2023/10/18 06:20:58;;;;;;;;;3.00;3.00;;;;;5.10;76.10;99347.78;5075386;28;8933;-55
2023/10/18 06:23:38;;;;;;;;;4.40;4.00;;;;;5.14;75.75;99341.34;5075364;28;8835;-58
2023/10/18 06:29:00;;;;;;;;;1.00;0.80;;;;;5.28;75.70;99343.88;5075038;28;8828;-56
2023/10/18 06:31:28;;;;;;;;;0.00;0.00;;;;;5.33;75.47;99344.44;5075156;28;8836;-58
2023/10/18 06:33:59;;;;;;;;;3.20;2.60;;;;;5.32;74.87;99338.31;5074915;28;8844;-58
2023/10/18 06:36:32;;;;;;;;;4.00;3.00;;;;;5.33;75.46;99333.88;5074696;28;8828;-58
2023/10/18 06:39:04;;;;;;;;;5.60;4.00;;;;;5.37;75.04;99336.19;5075072;28;8869;-58
2023/10/18 06:41:32;;;;;;;;;3.00;3.00;;;;;5.44;74.88;99340.13;5074404;28;8921;-55
2023/10/18 06:43:59;;;;;;;;;3.20;3.00;;;;;5.51;75.54;99330.81;5073460;28;8831;-58
2023/10/18 06:46:28;;;;;;;;;1.40;1.40;;;;;5.56;75.26;99338.44;5073996;28;8839;-58
2023/10/18 06:48:57;;;;;;;;;6.00;5.60;;;;;5.58;74.80;99334.72;5074047;28;8913;-58
2023/10/18 06:51:41;;;;;;;;;1.20;1.20;;;;;5.62;75.20;99333.56;5074241;28;8889;-58
2023/10/18 06:54:13;;;;;;;;;6.00;4.00;;;;;5.64;75.10;99328.19;5074339;28;8847;-57
2023/10/18 06:56:45;;;;;;;;;6.00;4.00;;;;;5.69;74.75;99328.72;5073347;28;8828;-58
2023/10/18 06:59:14;;;;;;;;;3.20;3.00;;;;;5.74;75.12;99329.22;5073611;28;8824;-58
2023/10/18 07:01:54;;;;;;;;;0.00;0.00;;;;;5.79;74.38;99333.28;5073043;28;8838;-58
2023/10/18 07:04:28;;;;;;;;;3.00;3.00;;;;;5.85;74.10;99335.47;5072924;28;9537;-56
2023/10/18 07:06:57;;;;;;;;;4.00;3.80;;;;;5.90;74.11;99330.72;5073926;28;8867;-58
2023/10/18 07:09:31;;;;;;;;;1.80;1.00;;;;;5.96;74.27;99325.00;5073803;28;8862;-57
2023/10/18 07:12:03;;;;;;;;;4.00;3.00;;;;;6.05;74.19;99323.50;5074149;28;8982;-58
2023/10/18 07:14:32;;;;;;;;;4.00;2.20;;;;;6.15;73.81;99319.25;5074231;28;8852;-58
2023/10/18 07:17:04;;;;;;;;;4.40;4.40;;;;;6.26;73.69;99312.25;5074519;28;8832;-56
2023/10/18 07:19:41;;;;;;;;;5.60;4.40;;;;;6.38;73.07;99311.34;5074400;28;9478;-58
2023/10/18 07:22:17;;;;;;;;;6.00;6.00;;;;;6.50;73.37;99310.44;5074167;28;8856;-58
2023/10/18 07:24:47;;;;;;;;;5.20;3.80;;;;;6.60;73.32;99307.97;5074941;28;8864;-59
2023/10/18 07:27:17;;;;;;;;;4.40;3.80;;;;;6.69;72.85;99302.00;5074765;28;8842;-58
2023/10/18 07:29:49;;;;;;;;;5.40;4.40;;;;;6.78;73.12;99309.25;5074633;28;8844;-57
2023/10/18 07:32:20;;;;;;;;;4.80;3.00;;;;;6.87;72.83;99305.91;5074180;28;8847;-56
2023/10/18 07:34:49;;;;;;;;;3.00;3.00;;;;;6.97;72.54;99294.53;5074672;28;9525;-56
2023/10/18 07:37:24;;;;;;;;;6.40;4.40;;;;;7.10;72.33;99283.84;5074075;28;8820;-56
2023/10/18 07:39:59;;;;;;;;;3.00;3.00;;;;;7.20;72.44;99279.56;5074280;28;8967;-58
2023/10/18 07:42:34;;;;;;;;;5.60;4.00;;;;;7.32;72.30;99274.16;5074014;28;9119;-56
2023/10/18 07:45:04;;;;;;;;;4.80;4.80;;;;;7.42;71.85;99266.34;5074003;28;8946;-58
2023/10/18 07:47:37;;;;;;;;;3.00;1.00;;;;;7.52;71.83;99270.81;5073940;28;8858;-57
2023/10/18 07:50:34;;;;;;;;;3.60;3.40;;;;;7.65;71.61;99260.09;5073725;28;8868;-58
2023/10/18 07:52:55;;;;;;;;;3.00;3.00;;;;;7.76;71.44;99256.47;5073666;28;8851;-58
2023/10/18 07:55:23;;;;;;;;;5.20;5.20;;;;;7.85;71.44;99257.56;5073865;28;8882;-58
2023/10/18 07:57:51;;;;;;;;;3.50;3.25;;;;;7.94;71.06;99252.38;5073456;28;8828;-56
2023/10/18 08:00:22;;;;;;;;;3.00;3.00;;;;;8.04;71.10;99247.16;5073031;28;9777;-58
2023/10/18 08:02:50;;;;;;;;;3.00;3.00;;;;;8.15;71.08;99245.31;5073065;28;8820;-58
2023/10/18 08:05:30;;;;;;;;;4.50;3.50;;;;;8.27;70.81;99244.38;5073486;28;8840;-56
2023/10/18 08:08:03;;;;;;;;;4.75;3.75;;;;;8.40;70.68;99241.56;5074040;28;8920;-58
2023/10/18 08:10:32;;;;;;;;;4.00;3.50;;;;;8.52;70.49;99233.44;5074172;28;8840;-58
2023/10/18 08:13:03;;;;;;;;;3.75;3.00;;;;;8.66;70.46;99238.44;5074567;28;8836;-59
2023/10/18 08:15:35;;;;;;;;;3.50;3.50;;;;;8.80;70.25;99221.38;5073427;28;8828;-56
2023/10/18 08:18:14;;;;;;;;;7.00;5.00;;;;;8.92;69.79;99221.19;5074443;28;8855;-58
2023/10/18 08:20:56;;;;;;;;;6.25;6.00;;;;;9.05;69.41;99216.50;5073627;28;9010;-55
2023/10/18 08:23:36;;;;;;;;;6.00;5.50;;;;;9.18;69.30;99211.84;5073115;28;8836;-58
2023/10/18 08:26:07;;;;;;;;;9.00;6.75;;;;;9.33;69.17;99205.19;5073543;28;8842;-59
2023/10/18 08:28:39;;;;;;;;;4.25;3.50;;;;;9.47;68.98;99207.50;5073318;28;8840;-58
2023/10/18 08:31:10;;;;;;;;;8.00;6.00;;;;;9.56;68.83;99193.41;5073840;28;8836;-60
2023/10/18 08:33:38;;;;;;;;;6.25;4.00;;;;;9.65;69.22;99192.59;5073997;28;8832;-59
2023/10/18 08:36:09;;;;;;;;;6.50;5.00;;;;;9.74;68.49;99194.47;5074034;28;8832;-59
2023/10/18 08:38:37;;;;;;;;;5.75;5.00;;;;;9.84;68.38;99191.81;5074219;28;8824;-59
2023/10/18 08:41:13;;;;;;;;;4.00;4.00;;;;;9.94;68.74;99185.56;5073433;28;8850;-60
2023/10/18 08:43:44;;;;;;;;;7.50;7.00;;;;;10.05;68.10;99179.31;5073438;28;8971;-57
2023/10/18 08:46:13;;;;;;;;;8.50;8.50;;;;;10.15;68.22;99178.34;5073367;28;8840;-57
2023/10/18 08:48:41;;;;;;;;;8.50;6.00;;;;;10.25;67.89;99178.38;5071938;28;8832;-58
2023/10/18 08:51:09;;;;;;;;;6.00;6.00;;;;;10.33;68.07;99179.34;5071887;28;8864;-59
2023/10/18 08:53:41;;;;;;;;;5.00;4.00;;;;;10.46;67.74;99177.25;5071800;28;8840;-57
2023/10/18 08:56:09;;;;;;;;;1.00;1.00;;;;;10.63;67.00;99173.06;5072259;28;8894;-60
2023/10/18 08:58:37;;;;;;;;;3.00;3.00;;;;;10.80;67.31;99175.84;5071717;28;8986;-58
2023/10/18 09:01:05;;;;;;;;;2.50;2.50;;;;;10.97;66.90;99161.78;5072116;28;8844;-58
2023/10/18 09:03:35;;;;;;;;;2.75;2.50;;;;;11.14;67.19;99152.22;5072533;28;8828;-57
2023/10/18 09:06:06;;;;;;;;;2.00;2.00;;;;;11.30;66.49;99153.25;5072122;28;8832;-60
2023/10/18 09:08:35;;;;;;;;;3.00;3.00;;;;;11.44;66.36;99155.47;5072637;28;8840;-57
2023/10/18 09:11:05;;;;;;;;;3.00;1.00;;;;;11.57;65.52;99153.31;5072362;28;8832;-57
2023/10/18 09:13:37;;;;;;;;;3.75;3.75;;;;;11.73;65.92;99150.00;5072334;28;8840;-59
2023/10/18 09:16:04;;;;;;;;;1.50;1.50;;;;;11.84;65.13;99145.31;5072192;28;8836;-58
2023/10/18 09:18:34;;;;;;;;;4.00;3.75;;;;;11.97;64.95;99148.47;5071976;28;8866;-58
2023/10/18 09:21:07;;;;;;;;;4.00;3.75;;;;;12.08;64.60;99145.59;5072441;28;8848;-58
2023/10/18 09:23:36;;;;;;;;;3.25;3.25;;;;;12.18;64.73;99147.22;5072341;28;8840;-58
2023/10/18 09:26:10;;;;;;;;;7.00;6.25;;;;;12.27;64.35;99138.28;5072364;28;8858;-58
2023/10/18 09:28:39;;;;;;;;;3.50;3.50;;;;;12.38;64.53;99134.56;5071947;28;8916;-60
2023/10/18 09:31:11;;;;;;;;;1.50;0.75;;;;;12.50;64.00;99130.63;5072039;28;8982;-60
2023/10/18 09:33:40;;;;;;;;;2.00;1.50;;;;;12.63;63.55;99128.41;5071869;28;8840;-58
2023/10/18 09:36:18;;;;;;;;;3.00;2.50;;;;;12.79;63.87;99132.06;5074935;28;8828;-58
2023/10/18 09:38:46;;;;;;;;;1.00;1.00;;;;;12.95;63.06;99118.00;5075969;28;8839;-59
2023/10/18 09:41:15;;;;;;;;;3.00;3.00;;;;;13.13;62.86;99114.28;5075633;28;8983;-60
2023/10/18 09:43:43;;;;;;;;;3.00;2.50;;;;;13.29;62.50;99113.53;5076138;28;8828;-60
2023/10/18 09:46:13;;;;;;;;;1.50;1.00;;;;;13.45;62.20;99113.63;5076379;28;8847;-59
2023/10/18 09:48:41;;;;;;;;;3.25;2.50;;;;;13.58;61.60;99098.78;5075852;28;8913;-59
2023/10/18 09:51:09;;;;;;;;;3.00;2.50;;;;;13.72;61.63;99111.53;5076472;28;8856;-60
2023/10/18 09:53:37;;;;;;;;;3.00;3.00;;;;;13.97;61.35;99094.53;5076518;28;8956;-59
2023/10/18 09:56:05;;;;;;;;;1.00;1.00;;;;;14.28;60.43;99087.59;5076252;28;8824;-59
2023/10/18 09:58:41;;;;;;;;;3.50;2.00;;;;;14.63;60.18;99087.28;5076405;28;8832;-60
2023/10/18 10:01:24;;;;;;;;;1.50;1.50;;;;;14.98;59.61;99073.50;5076913;28;8839;-60
2023/10/18 10:03:56;;;;;;;;;3.75;3.00;;;;;15.31;58.54;99063.53;5076140;28;8847;-58
2023/10/18 10:06:24;;;;;;;;;2.00;2.00;;;;;15.62;58.02;99064.41;5076144;28;8924;-59
2023/10/18 10:08:55;;;;;;;;;1.00;1.00;;;;;15.83;57.97;99056.56;5075926;28;8831;-58
2023/10/18 10:11:29;;;;;;;;;3.00;3.00;;;;;15.96;57.51;99048.78;5075889;28;8851;-60
2023/10/18 10:13:57;;;;;;;;;1.00;1.00;;;;;15.96;57.63;99056.84;5075371;28;8832;-59
2023/10/18 10:16:26;;;;;;;;;3.00;3.00;;;;;15.90;57.80;99058.38;5074902;28;8856;-58
2023/10/18 10:18:54;;;;;;;;;3.00;1.00;;;;;15.86;58.04;99061.59;5075945;28;8901;-61
2023/10/18 10:21:23;;;;;;;;;3.20;3.20;;;;;15.86;58.08;99058.91;5075447;28;8936;-59
2023/10/18 10:23:55;;;;;;;;;2.20;2.20;;;;;15.99;57.91;99048.44;5075101;28;8840;-58
2023/10/18 10:26:27;;;;;;;;;2.20;2.20;;;;;16.13;57.14;99050.31;5074545;28;8840;-60
2023/10/18 10:31:46;;;;;;;;;1.80;1.40;;;;;16.09;57.13;99047.16;5074764;28;8875;-58
2023/10/18 10:34:13;;;;;;;;;3.00;1.80;;;;;16.10;57.71;99045.31;5074688;28;8863;-57
2023/10/18 10:36:43;;;;;;;;;0.00;0.00;;;;;16.15;57.31;99037.56;5073705;28;8864;-59
2023/10/18 10:39:12;;;;;;;;;0.60;0.60;;;;;16.18;57.22;99044.25;5074832;28;8854;-60
2023/10/18 10:41:41;;;;;;;;;1.80;1.80;;;;;16.02;57.61;99034.63;5074770;28;8844;-60
2023/10/18 10:44:08;;;;;;;;;2.60;2.60;;;;;15.83;57.66;99040.47;5075259;28;8913;-60
2023/10/18 10:46:37;;;;;;;;;1.00;1.00;;;;;15.67;58.08;99035.19;5074985;28;8832;-60
2023/10/18 10:49:06;;;;;;;;;0.00;0.00;;;;;15.58;58.24;99033.56;5074985;28;8864;-60
2023/10/18 10:51:37;;;;;;;;;1.80;1.00;;;;;15.58;58.22;99025.50;5076102;28;8855;-59
2023/10/18 10:54:07;;;;;;;;;3.00;3.00;;;;;15.58;58.33;99025.50;5075304;28;8995;-59
2023/10/18 10:56:35;;;;;;;;;1.80;1.80;;;;;15.55;57.86;99026.69;5075611;28;9478;-58
2023/10/18 10:59:09;;;;;;;;;1.50;1.50;;;;;15.53;57.77;99018.00;5074949;28;8820;-60
2023/10/18 11:01:40;;;;;;;;;1.00;1.00;;;;;15.55;58.43;99015.13;5074906;28;8831;-59
2023/10/18 11:04:11;;;;;;;;;3.20;1.40;;;;;15.57;57.46;99010.44;5075630;28;8850;-60
2023/10/18 11:06:42;;;;;;;;;3.20;3.20;;;;;15.57;57.71;99013.09;5075667;28;8851;-59
2023/10/18 11:09:15;;;;;;;;;1.40;1.00;;;;;15.55;57.80;98999.84;5075168;28;8836;-58
2023/10/18 11:11:43;;;;;;;;;1.00;1.00;;;;;15.55;57.91;98988.31;5075145;28;8848;-59
2023/10/18 11:14:17;;;;;;;;;3.40;2.60;;;;;15.58;57.29;98985.25;5075543;28;8835;-59
2023/10/18 11:16:46;;;;;;;;;3.60;2.60;;;;;15.62;56.77;98978.53;5075678;28;8828;-59
2023/10/18 11:19:16;;;;;;;;;1.00;1.00;;;;;15.73;56.89;98981.66;5076036;28;8851;-58
2023/10/18 11:21:44;;;;;;;;;3.00;3.00;;;;;15.92;55.96;98974.97;5075589;28;9626;-59
2023/10/18 11:24:14;;;;;;;;;1.00;1.00;;;;;16.13;55.16;98969.75;5075412;28;8920;-60
2023/10/18 11:26:42;;;;;;;;;1.00;1.00;;;;;16.28;55.03;98955.34;5076114;28;8917;-58
2023/10/18 11:29:12;;;;;;;;;1.00;1.00;;;;;16.45;54.48;98949.66;5075743;28;8839;-59
2023/10/18 11:31:44;;;;;;;;;1.80;1.00;;;;;16.56;54.51;98949.22;5075511;28;8985;-59
2023/10/18 11:34:21;;;;;;;;;3.00;1.00;;;;;16.61;53.61;98937.91;5074980;28;8846;-59
2023/10/18 11:36:50;;;;;;;;;2.60;2.60;;;;;16.62;53.87;98937.72;5074835;28;8974;-59
2023/10/18 11:39:23;;;;;;;;;2.60;1.00;;;;;16.58;53.81;98936.44;5074557;28;8829;-60
2023/10/18 11:41:53;;;;;;;;;2.60;2.60;;;;;16.62;54.15;98929.66;5074472;28;8942;-60
2023/10/18 11:44:21;;;;;;;;;2.20;1.00;;;;;16.72;53.97;98929.38;5074728;28;8871;-59
2023/10/18 11:46:49;;;;;;;;;4.00;3.00;;;;;16.79;53.59;98925.75;5075020;28;8851;-59
2023/10/18 11:49:19;;;;;;;;;1.80;1.80;;;;;16.90;53.55;98919.06;5074809;28;8840;-59
2023/10/18 11:51:48;;;;;;;;;1.00;1.00;;;;;17.14;53.00;98916.06;5073683;28;8860;-60
2023/10/18 11:54:16;;;;;;;;;1.80;1.00;;;;;17.40;52.24;98906.47;5074706;28;8827;-59
2023/10/18 11:56:44;;;;;;;;;1.00;1.00;;;;;17.60;51.70;98896.75;5075072;28;8863;-58
2023/10/18 11:59:11;;;;;;;;;1.00;1.00;;;;;17.85;51.75;98898.03;5074048;28;8839;-59
2023/10/18 12:01:45;;;;;;;;;1.00;1.00;;;;;18.26;51.06;98888.22;5075127;28;8839;-58
2023/10/18 12:04:15;;;;;;;;;1.00;1.00;;;;;18.74;50.03;98892.72;5074867;28;8812;-57
2023/10/18 12:06:43;;;;;;;;;1.00;1.00;;;;;19.07;48.63;98888.34;5074628;28;8954;-58
2023/10/18 12:12:05;;;;;;;;;2.00;2.00;;;;;19.52;48.27;98865.22;5148564;27;13328;-58
2023/10/18 12:14:36;;;;;;;;;1.00;1.00;;;;;19.89;48.05;98854.66;5130624;27;8841;-58
2023/10/18 12:17:04;;;;;;;;;1.00;1.00;;;;;20.33;46.91;98848.66;5131188;27;8821;-58
2023/10/18 12:19:34;;;;;;;;;1.00;1.00;;;;;20.70;46.28;98848.75;5131932;27;8818;-58
2023/10/18 12:22:04;;;;;;;;;2.00;2.00;;;;;21.07;45.87;98843.47;5131370;27;8909;-59
2023/10/18 12:24:33;;;;;;;;;0.40;0.20;;;;;21.47;44.96;98828.63;5130853;27;8859;-59